createdAt,value
2018-10-02T00:03:38.243Z,7.00
2018-10-02T00:23:26.174Z,6.40
2018-10-02T00:25:54.043Z,7.10
2018-10-02T00:28:21.867Z,8.15
2018-10-02T00:35:44.367Z,5.57
2018-10-02T00:38:12.178Z,7.33
2018-10-02T00:40:39.981Z,6.47
2018-10-02T00:43:07.843Z,9.20
2018-10-02T00:45:35.970Z,4.40
2018-10-02T00:50:31.215Z,4.80
2018-10-02T00:52:59.023Z,10.73
2018-10-02T00:55:26.963Z,6.63
2018-10-02T00:57:54.778Z,6.20
2018-10-02T01:00:22.851Z,14.40
2018-10-02T01:02:50.638Z,6.10
2018-10-02T01:05:18.604Z,5.47
2018-10-02T01:07:46.584Z,5.77
2018-10-02T01:10:14.528Z,8.17
2018-10-02T01:12:42.375Z,3.45
2018-10-02T01:15:10.186Z,10.57
2018-10-02T01:17:38.053Z,4.60
2018-10-02T01:20:06.165Z,5.60
2018-10-02T01:22:33.991Z,8.77
2018-10-02T01:25:01.873Z,5.57
2018-10-02T01:27:29.707Z,7.10
2018-10-02T01:29:57.684Z,4.03
2018-10-02T01:32:25.903Z,11.10
2018-10-02T01:34:53.751Z,10.47
2018-10-02T01:37:21.549Z,5.73
2018-10-02T01:42:21.143Z,5.53
2018-10-02T01:44:53.770Z,8.05
2018-10-02T01:47:21.622Z,10.40
2018-10-02T01:49:49.730Z,7.45
2018-10-02T01:52:17.542Z,6.10
2018-10-02T01:54:45.865Z,5.00
2018-10-02T01:59:40.676Z,4.87
2018-10-02T02:02:10.512Z,5.30
2018-10-02T02:04:38.324Z,7.13
2018-10-02T02:07:06.165Z,3.17
2018-10-02T02:09:35.129Z,7.00
2018-10-02T02:12:02.969Z,4.43
2018-10-02T02:14:35.900Z,6.43
2018-10-02T02:17:03.788Z,7.27
2018-10-02T02:19:32.677Z,6.60
2018-10-02T02:22:00.540Z,7.20
2018-10-02T02:24:28.365Z,4.33
2018-10-02T02:27:02.266Z,6.67
2018-10-02T02:29:31.129Z,6.40
2018-10-02T02:31:59.001Z,5.40
2018-10-02T02:34:28.907Z,6.70
2018-10-02T02:36:58.795Z,5.20
2018-10-02T02:39:26.666Z,8.90
2018-10-02T02:41:55.583Z,11.47
2018-10-02T02:44:24.452Z,4.70
2018-10-02T02:46:54.377Z,8.13
2018-10-02T02:49:27.792Z,6.80
2018-10-02T02:51:55.621Z,9.73
2018-10-02T02:54:23.451Z,7.20
2018-10-02T02:56:51.320Z,5.23
2018-10-02T02:59:20.165Z,6.47
2018-10-02T03:01:50.074Z,4.90
2018-10-02T03:04:17.880Z,12.93
2018-10-02T03:06:46.707Z,6.20
2018-10-02T03:09:14.543Z,6.97
2018-10-02T03:11:42.372Z,8.17
2018-10-02T03:14:11.224Z,8.63
2018-10-02T03:16:39.029Z,9.30
2018-10-02T03:19:06.856Z,13.13
2018-10-02T03:21:34.703Z,8.27
2018-10-02T03:24:05.795Z,7.10
2018-10-02T03:26:34.627Z,9.50
2018-10-02T03:29:02.467Z,7.33
2018-10-02T03:31:32.323Z,8.10
2018-10-02T03:34:02.224Z,13.43
2018-10-02T03:36:31.168Z,9.13
2018-10-02T03:39:01.062Z,10.27
2018-10-02T03:41:28.951Z,10.30
2018-10-02T03:43:56.767Z,10.97
2018-10-02T03:46:25.694Z,12.23
2018-10-02T03:48:58.561Z,10.47
2018-10-02T03:51:32.117Z,7.90
2018-10-02T03:54:00.941Z,12.07
2018-10-02T03:56:28.820Z,8.90
2018-10-02T03:58:57.752Z,10.60
2018-10-02T04:01:26.544Z,12.77
2018-10-02T04:03:56.449Z,7.17
2018-10-02T04:06:25.293Z,10.13
2018-10-02T04:08:54.226Z,8.50
2018-10-02T04:11:24.094Z,12.33
2018-10-02T04:13:52.995Z,12.43
2018-10-02T04:16:21.933Z,8.60
2018-10-02T04:18:50.865Z,16.27
2018-10-02T04:21:26.116Z,11.87
2018-10-02T04:23:53.919Z,8.80
2018-10-02T04:26:22.775Z,13.23
2018-10-02T04:28:51.625Z,11.77
2018-10-02T04:31:19.489Z,11.60
2018-10-02T04:33:48.384Z,11.70
2018-10-02T04:36:18.344Z,8.93
2018-10-02T04:38:51.091Z,11.63
2018-10-02T04:41:20.955Z,11.43
2018-10-02T04:43:48.785Z,13.60
2018-10-02T04:46:18.599Z,18.57
2018-10-02T04:48:47.535Z,15.27
2018-10-02T04:51:15.429Z,11.20
2018-10-02T04:53:44.266Z,10.73
2018-10-02T04:56:13.221Z,14.40
2018-10-02T04:58:46.842Z,19.50
2018-10-02T05:01:14.703Z,10.50
2018-10-02T05:03:43.573Z,13.13
2018-10-02T05:06:11.426Z,14.53
2018-10-02T05:08:39.339Z,14.13
2018-10-02T05:11:08.150Z,13.40
2018-10-02T05:13:37.036Z,16.67
2018-10-02T05:16:04.908Z,11.87
2018-10-02T05:18:32.756Z,14.80
2018-10-02T05:21:00.653Z,12.63
2018-10-02T05:23:30.568Z,19.10
2018-10-02T05:25:58.441Z,20.03
2018-10-02T05:28:26.301Z,15.47
2018-10-02T05:30:54.105Z,12.43
2018-10-02T05:33:21.993Z,18.80
2018-10-02T05:35:49.821Z,16.33
2018-10-02T05:38:22.021Z,17.97
2018-10-02T05:40:55.654Z,18.73
2018-10-02T05:43:24.548Z,16.40
2018-10-02T05:45:53.447Z,12.93
2018-10-02T05:48:21.354Z,15.30
2018-10-02T05:50:50.401Z,16.00
2018-10-02T05:53:18.277Z,16.63
2018-10-02T05:55:46.147Z,18.00
2018-10-02T05:58:15.995Z,22.27
2018-10-02T06:00:45.885Z,19.90
2018-10-02T06:03:14.769Z,12.30
2018-10-02T06:05:42.604Z,11.20
2018-10-02T06:08:10.501Z,12.80
2018-10-02T06:10:38.345Z,20.80
2018-10-02T06:13:09.901Z,18.20
2018-10-02T06:15:38.796Z,12.83
2018-10-02T06:18:06.704Z,16.37
2018-10-02T06:20:34.569Z,10.53
2018-10-02T06:23:04.401Z,16.80
2018-10-02T06:25:33.248Z,13.70
2018-10-02T06:28:01.098Z,14.43
2018-10-02T06:30:29.067Z,20.33
2018-10-02T06:32:57.844Z,13.30
2018-10-02T06:35:31.804Z,18.43
2018-10-02T06:37:59.732Z,18.03
2018-10-02T06:40:28.672Z,14.60
2018-10-02T06:42:57.551Z,9.30
2018-10-02T06:45:25.461Z,18.70
2018-10-02T06:47:54.393Z,11.93
2018-10-02T06:50:27.998Z,8.37
2018-10-02T06:52:59.077Z,10.23
2018-10-02T06:55:28.940Z,11.67
2018-10-02T06:57:56.797Z,13.37
2018-10-02T07:00:27.923Z,18.17
2018-10-02T07:02:55.847Z,10.07
2018-10-02T07:05:23.645Z,7.40
2018-10-02T07:07:51.611Z,15.23
2018-10-02T07:10:25.378Z,9.83
2018-10-02T07:12:53.213Z,10.23
2018-10-02T07:15:22.123Z,12.10
2018-10-02T07:17:50.045Z,9.97
2018-10-02T07:20:23.472Z,10.50
2018-10-02T07:22:51.306Z,10.67
2018-10-02T07:25:20.233Z,10.73
2018-10-02T07:27:48.221Z,13.43
2018-10-02T07:30:15.985Z,14.70
2018-10-02T07:32:49.581Z,9.10
2018-10-02T07:35:18.514Z,9.17
2018-10-02T07:37:46.361Z,13.13
2018-10-02T07:40:15.200Z,4.60
2018-10-02T07:42:44.125Z,7.07
2018-10-02T07:45:16.904Z,7.47
2018-10-02T07:47:44.716Z,7.87
2018-10-02T07:50:12.581Z,9.53
2018-10-02T07:52:40.441Z,15.80
2018-10-02T07:55:10.318Z,10.63
2018-10-02T07:57:39.237Z,7.07
2018-10-02T08:00:07.115Z,15.40
2018-10-02T08:02:36.167Z,9.17
2018-10-02T08:05:04.115Z,11.73
2018-10-02T08:07:31.816Z,13.27
2018-10-02T08:09:59.658Z,11.80
2018-10-02T08:12:27.667Z,9.20
2018-10-02T08:14:55.462Z,10.13
2018-10-02T08:17:23.295Z,12.53
2018-10-02T08:19:51.153Z,6.23
2018-10-02T08:22:18.978Z,8.07
2018-10-02T08:24:47.897Z,8.83
2018-10-02T08:27:15.830Z,10.63
2018-10-02T08:29:44.701Z,10.73
2018-10-02T08:32:18.582Z,8.07
2018-10-02T08:34:48.433Z,11.27
2018-10-02T08:37:19.962Z,8.17
2018-10-02T08:39:47.786Z,7.53
2018-10-02T08:42:16.726Z,14.50
2018-10-02T08:44:45.572Z,6.40
2018-10-02T08:47:17.357Z,10.93
2018-10-02T08:49:45.204Z,8.33
2018-10-02T08:52:15.279Z,6.80
2018-10-02T08:54:44.132Z,8.03
2018-10-02T08:57:11.993Z,8.53
2018-10-02T08:59:39.820Z,12.00
2018-10-02T09:02:12.254Z,8.27
2018-10-02T09:04:40.110Z,4.57
2018-10-02T09:07:08.089Z,7.67
2018-10-02T09:09:41.311Z,9.47
2018-10-02T09:12:10.225Z,8.50
2018-10-02T09:14:39.065Z,6.77
2018-10-02T09:17:07.021Z,9.73
2018-10-02T09:19:34.824Z,6.43
2018-10-02T09:22:03.748Z,7.60
2018-10-02T09:24:36.928Z,5.63
2018-10-02T09:27:04.813Z,10.27
2018-10-02T09:29:39.034Z,12.70
2018-10-02T09:32:12.497Z,6.23
2018-10-02T09:34:45.768Z,8.50
2018-10-02T09:37:22.485Z,6.90
2018-10-02T09:39:57.844Z,3.87
2018-10-02T09:42:31.202Z,7.17
2018-10-02T09:44:59.037Z,8.27
2018-10-02T09:47:28.013Z,7.97
2018-10-02T09:49:56.988Z,9.33
2018-10-02T09:52:29.754Z,9.80
2018-10-02T09:55:02.594Z,5.00
2018-10-02T09:57:31.369Z,6.77
2018-10-02T09:59:59.294Z,6.90
2018-10-02T10:02:34.218Z,6.10
2018-10-02T10:05:06.209Z,6.17
2018-10-02T10:07:36.093Z,7.83
2018-10-02T10:10:05.013Z,7.80
2018-10-02T10:12:33.911Z,17.70
2018-10-02T10:15:02.744Z,9.57
2018-10-02T10:17:31.678Z,8.97
2018-10-02T10:19:59.524Z,11.03
2018-10-02T10:22:27.390Z,4.50
2018-10-02T10:24:56.296Z,6.63
2018-10-02T10:27:24.172Z,7.00
2018-10-02T10:29:52.073Z,5.63
2018-10-02T10:32:22.077Z,8.37
2018-10-02T10:34:54.875Z,4.50
2018-10-02T10:37:22.668Z,9.10
2018-10-02T10:39:50.529Z,5.93
2018-10-02T10:42:21.600Z,3.70
2018-10-02T10:44:49.445Z,7.40
2018-10-02T10:47:17.329Z,10.37
2018-10-02T10:49:46.249Z,5.87
2018-10-02T10:52:14.053Z,11.20
2018-10-02T10:54:46.418Z,10.77
2018-10-02T10:57:14.249Z,11.30
2018-10-02T10:59:43.106Z,6.23
2018-10-02T11:02:13.023Z,8.07
2018-10-02T11:04:42.110Z,8.07
2018-10-02T11:07:13.577Z,6.07
2018-10-02T11:09:43.486Z,3.10
2018-10-02T11:12:11.284Z,6.23
2018-10-02T11:14:40.181Z,11.43
2018-10-02T11:17:08.008Z,5.07
2018-10-02T11:19:36.962Z,6.43
2018-10-02T11:22:04.728Z,7.43
2018-10-02T11:24:32.574Z,6.80
2018-10-02T11:27:01.433Z,10.53
2018-10-02T11:29:30.338Z,10.43
2018-10-02T11:31:58.209Z,10.97
2018-10-02T11:34:27.024Z,8.10
2018-10-02T11:36:56.085Z,7.10
2018-10-02T11:39:26.006Z,9.27
2018-10-02T11:41:58.069Z,8.30
2018-10-02T11:44:25.981Z,6.90
2018-10-02T11:46:53.820Z,6.23
2018-10-02T11:49:23.778Z,6.43
2018-10-02T11:51:51.573Z,12.00
2018-10-02T11:54:21.465Z,8.47
2018-10-02T11:56:50.382Z,14.00
2018-10-02T11:59:19.240Z,7.87
2018-10-02T12:01:50.900Z,4.33
2018-10-02T12:04:19.825Z,8.80
2018-10-02T12:06:48.771Z,6.23
2018-10-02T12:09:17.546Z,7.30
2018-10-02T12:11:45.406Z,7.20
2018-10-02T12:14:13.455Z,15.10
2018-10-02T12:16:42.190Z,7.70
2018-10-02T12:19:10.066Z,7.80
2018-10-02T12:21:37.901Z,7.30
2018-10-02T12:24:06.850Z,7.90
2018-10-02T12:26:35.234Z,10.73
2018-10-02T12:29:04.356Z,9.10
2018-10-02T12:31:32.184Z,5.93
2018-10-02T12:34:01.053Z,9.13
2018-10-02T12:36:29.948Z,5.23
2018-10-02T12:39:01.833Z,6.93
2018-10-02T12:41:33.569Z,4.23
2018-10-02T12:44:03.485Z,8.03
2018-10-02T12:46:31.369Z,4.13
2018-10-02T12:49:00.250Z,7.60
2018-10-02T12:51:28.133Z,3.87
2018-10-02T12:53:56.033Z,6.30
2018-10-02T12:56:25.090Z,8.73
2018-10-02T12:58:53.888Z,5.73
2018-10-02T13:01:22.784Z,3.33
2018-10-02T13:03:51.706Z,3.67
2018-10-02T13:06:20.621Z,3.10
2018-10-02T13:08:49.458Z,5.53
2018-10-02T13:11:19.391Z,5.60
2018-10-02T13:13:47.228Z,6.80
2018-10-02T13:16:15.079Z,6.80
2018-10-02T13:18:42.929Z,7.37
2018-10-02T13:21:10.831Z,5.87
2018-10-02T13:23:40.696Z,8.30
2018-10-02T13:26:09.628Z,4.73
2018-10-02T13:28:38.521Z,6.47
2018-10-02T13:31:11.260Z,7.83
2018-10-02T13:33:39.133Z,8.30
2018-10-02T13:36:07.216Z,10.40
2018-10-02T13:38:35.114Z,12.10
2018-10-02T13:41:07.952Z,11.50
2018-10-02T13:43:35.816Z,10.00
2018-10-02T13:46:03.655Z,9.70
2018-10-02T13:48:32.517Z,9.00
2018-10-02T13:51:01.393Z,10.17
2018-10-02T13:53:31.296Z,11.03
2018-10-02T13:56:00.105Z,8.23
2018-10-02T13:58:28.009Z,9.50
2018-10-02T14:00:55.866Z,9.03
2018-10-02T14:03:23.707Z,11.83
2018-10-02T14:05:52.572Z,9.33
2018-10-02T14:08:21.395Z,15.10
2018-10-02T14:10:49.249Z,9.50
2018-10-02T14:13:18.036Z,10.90
2018-10-02T14:15:46.942Z,9.90
2018-10-02T14:18:15.918Z,10.27
2018-10-02T14:20:46.943Z,10.93
2018-10-02T14:23:16.906Z,9.80
2018-10-02T14:25:44.813Z,14.10
2018-10-02T14:28:13.779Z,8.87
2018-10-02T14:30:42.590Z,7.90
2018-10-02T14:33:11.433Z,10.03
2018-10-02T14:35:39.379Z,10.73
2018-10-02T14:38:08.234Z,8.77
2018-10-02T14:40:37.445Z,12.50
2018-10-02T14:43:05.309Z,10.93
2018-10-02T14:45:33.172Z,10.87
2018-10-02T14:48:03.409Z,12.27
2018-10-02T14:50:35.568Z,9.77
2018-10-02T14:53:08.157Z,11.27
2018-10-02T14:55:37.009Z,11.27
2018-10-02T14:58:04.865Z,9.77
2018-10-02T15:00:35.148Z,9.50
2018-10-02T15:03:04.003Z,9.90
2018-10-02T15:05:33.813Z,11.07
2018-10-02T15:08:02.745Z,9.90
2018-10-02T15:10:30.580Z,10.13
2018-10-02T15:12:58.469Z,11.40
2018-10-02T15:15:26.324Z,15.97
2018-10-02T15:17:54.262Z,8.23
2018-10-02T15:20:23.108Z,6.37
2018-10-02T15:22:56.036Z,9.03
2018-10-02T15:25:23.917Z,8.60
2018-10-02T15:27:52.853Z,9.50
2018-10-02T15:31:17.540Z,12.75
2018-10-02T15:33:45.413Z,11.90
2018-10-02T15:36:13.240Z,9.43
2018-10-02T15:38:41.048Z,10.20
2018-10-02T15:41:08.909Z,11.10
2018-10-02T15:43:36.746Z,10.10
2018-10-02T15:46:04.585Z,9.80
2018-10-02T15:48:32.385Z,8.20
2018-10-02T15:51:35.238Z,14.33
2018-10-02T15:54:03.081Z,11.40
2018-10-02T15:56:30.964Z,10.67
2018-10-02T15:58:58.838Z,9.73
2018-10-02T16:01:26.690Z,12.87
2018-10-02T16:03:54.582Z,14.30
2018-10-02T16:06:22.392Z,13.73
2018-10-02T16:08:50.259Z,11.90
2018-10-02T16:11:18.138Z,11.63
2018-10-02T16:13:45.932Z,12.47
2018-10-02T16:16:13.744Z,8.70
2018-10-02T16:18:41.561Z,9.93
2018-10-02T16:21:09.375Z,9.97
2018-10-02T16:23:37.238Z,7.63
2018-10-02T16:26:05.093Z,8.70
2018-10-02T16:28:32.899Z,10.27
2018-10-02T16:31:00.774Z,8.67
2018-10-02T16:33:28.600Z,7.93
2018-10-02T16:35:56.511Z,9.73
2018-10-02T16:38:24.307Z,7.43
2018-10-02T16:40:52.206Z,8.40
2018-10-02T16:43:20.016Z,7.20
2018-10-02T16:45:47.849Z,8.83
2018-10-02T16:48:15.704Z,7.30
2018-10-02T16:50:43.541Z,7.63
2018-10-02T16:53:11.379Z,9.40
2018-10-02T16:55:39.209Z,10.43
2018-10-02T16:58:07.185Z,7.87
2018-10-02T17:00:35.098Z,8.90
2018-10-02T17:03:02.938Z,11.53
2018-10-02T17:05:30.788Z,5.30
2018-10-02T17:07:58.626Z,9.63
2018-10-02T17:10:26.444Z,5.60
2018-10-02T17:12:54.248Z,6.40
2018-10-02T17:15:22.089Z,7.60
2018-10-02T17:17:49.976Z,7.83
2018-10-02T17:20:17.821Z,7.83
2018-10-02T17:22:45.621Z,6.77
2018-10-02T17:25:13.481Z,8.40
2018-10-02T17:27:41.305Z,6.43
2018-10-02T17:30:09.154Z,5.60
2018-10-02T17:32:37.025Z,5.77
2018-10-02T17:35:04.874Z,6.63
2018-10-02T17:37:32.672Z,6.60
2018-10-02T17:40:00.560Z,6.80
2018-10-02T17:42:28.407Z,8.40
2018-10-02T17:44:56.249Z,9.83
2018-10-02T17:47:24.047Z,7.90
2018-10-02T17:49:51.909Z,8.90
2018-10-02T17:52:19.783Z,8.87
2018-10-02T17:54:47.627Z,8.77
2018-10-02T17:57:15.517Z,10.63
2018-10-02T17:59:43.349Z,9.47
2018-10-02T18:02:11.210Z,9.13
2018-10-02T18:04:39.078Z,11.33
2018-10-02T18:07:06.928Z,11.73
2018-10-02T18:09:34.789Z,8.30
2018-10-02T18:12:02.601Z,11.30
2018-10-02T18:14:30.725Z,16.10
2018-10-02T18:16:58.618Z,13.20
2018-10-02T18:19:26.570Z,11.33
2018-10-02T18:21:54.445Z,12.60
2018-10-02T18:24:22.292Z,9.93
2018-10-02T18:26:50.162Z,9.10
2018-10-02T18:29:18.037Z,10.50
2018-10-02T18:31:45.892Z,12.20
2018-10-02T18:34:13.704Z,11.93
2018-10-02T18:36:41.586Z,12.30
2018-10-02T18:39:09.437Z,12.47
2018-10-02T18:41:37.606Z,11.43
2018-10-02T18:44:05.437Z,11.43
2018-10-02T18:46:33.477Z,11.17
2018-10-02T18:49:01.363Z,10.97
2018-10-02T18:51:29.184Z,9.37
2018-10-02T18:53:57.042Z,10.83
2018-10-02T18:56:25.980Z,12.43
2018-10-02T18:58:53.777Z,9.70
2018-10-02T19:01:21.641Z,12.40
2018-10-02T19:03:49.489Z,10.63
2018-10-02T19:06:17.331Z,10.20
2018-10-02T19:08:51.784Z,11.47
2018-10-02T19:11:25.306Z,11.97
2018-10-02T19:13:53.240Z,14.13
2018-10-02T19:16:26.565Z,15.53
2018-10-02T19:18:54.451Z,12.33
2018-10-02T19:21:22.325Z,11.73
2018-10-02T19:23:50.236Z,13.50
2018-10-02T19:26:21.761Z,13.67
2018-10-02T19:28:50.164Z,13.73
2018-10-02T19:31:23.624Z,13.50
2018-10-02T19:33:51.944Z,12.50
2018-10-02T19:36:19.863Z,14.73
2018-10-02T19:39:22.651Z,15.13
2018-10-02T19:41:50.862Z,14.43
2018-10-02T19:44:19.761Z,14.63
2018-10-02T19:46:50.478Z,15.47
2018-10-02T19:49:19.776Z,15.90
2018-10-02T19:51:53.052Z,15.20
2018-10-02T19:54:21.619Z,16.03
2018-10-02T19:56:51.525Z,15.37
2018-10-02T19:59:19.424Z,17.23
2018-10-02T20:01:47.365Z,16.03
2018-10-02T20:04:15.275Z,17.30
2018-10-02T20:06:43.202Z,17.30
2018-10-02T20:09:11.522Z,17.50
2018-10-02T20:11:39.393Z,19.30
2018-10-02T20:14:07.554Z,18.57
2018-10-02T20:16:35.785Z,17.13
2018-10-02T20:19:03.909Z,17.77
2018-10-02T20:21:31.795Z,20.07
2018-10-02T20:23:59.812Z,15.00
2018-10-02T20:26:27.773Z,15.57
2018-10-02T20:28:55.680Z,19.50
2018-10-02T20:31:24.060Z,17.70
2018-10-02T20:33:51.986Z,20.03
2018-10-02T20:36:20.225Z,19.00
2018-10-02T20:38:48.101Z,18.07
2018-10-02T20:41:15.972Z,16.73
2018-10-02T20:43:43.844Z,18.80
2018-10-02T20:46:11.684Z,19.20
2018-10-02T20:48:39.575Z,16.87
2018-10-02T20:51:07.469Z,16.73
2018-10-02T20:53:35.437Z,15.00
2018-10-02T20:56:03.278Z,14.27
2018-10-02T20:58:31.159Z,18.80
2018-10-02T21:00:58.972Z,13.93
2018-10-02T21:03:27.078Z,20.77
2018-10-02T21:05:55.045Z,12.57
2018-10-02T21:08:22.873Z,16.70
2018-10-02T21:10:51.723Z,11.70
2018-10-02T21:13:19.576Z,17.60
2018-10-02T21:15:47.462Z,14.70
2018-10-02T21:18:15.293Z,12.07
2018-10-02T21:20:43.202Z,14.50
2018-10-02T21:23:11.024Z,15.37
2018-10-02T21:25:38.864Z,14.50
2018-10-02T21:28:06.816Z,13.57
2018-10-02T21:30:35.674Z,17.30
2018-10-02T21:33:03.571Z,16.00
2018-10-02T21:35:31.523Z,18.57
2018-10-02T21:37:59.397Z,13.30
2018-10-02T21:40:27.327Z,16.13
2018-10-02T21:42:55.167Z,18.23
2018-10-02T21:45:23.046Z,23.03
2018-10-02T21:47:50.949Z,19.80
2018-10-02T21:50:18.796Z,18.40
2018-10-02T21:52:46.723Z,18.53
2018-10-02T21:55:14.609Z,14.57
2018-10-02T21:57:42.505Z,16.50
2018-10-02T22:00:10.869Z,21.10
2018-10-02T22:02:38.889Z,14.37
2018-10-02T22:05:06.833Z,19.40
2018-10-02T22:07:34.681Z,16.90
2018-10-02T22:10:02.594Z,12.50
2018-10-02T22:12:30.449Z,23.23
2018-10-02T22:14:58.321Z,14.63
2018-10-02T22:17:26.152Z,19.40
2018-10-02T22:19:54.021Z,20.53
2018-10-02T22:22:21.881Z,14.27
2018-10-02T22:24:49.758Z,12.40
2018-10-02T22:27:17.658Z,12.50
2018-10-02T22:29:45.562Z,16.80
2018-10-02T22:32:13.489Z,11.47
2018-10-02T22:34:41.365Z,13.23
2018-10-02T22:37:09.307Z,8.47
2018-10-02T22:39:37.165Z,19.77
2018-10-02T22:42:05.069Z,8.70
2018-10-02T22:44:33.006Z,12.80
2018-10-02T22:47:00.868Z,15.40
2018-10-02T22:49:28.765Z,12.13
2018-10-02T22:51:56.588Z,9.23
2018-10-02T22:54:24.490Z,13.37
2018-10-02T22:56:52.329Z,17.07
2018-10-02T22:59:20.263Z,13.53
2018-10-02T23:01:49.053Z,22.40
2018-10-02T23:04:17.013Z,18.27
2018-10-02T23:06:44.900Z,13.90
2018-10-02T23:09:13.076Z,14.80
2018-10-02T23:11:41.220Z,16.13
2018-10-02T23:14:09.367Z,17.90
2018-10-02T23:16:37.274Z,15.17
2018-10-02T23:19:05.520Z,19.10
2018-10-02T23:21:33.389Z,16.80
2018-10-02T23:24:01.332Z,18.53
2018-10-02T23:26:29.458Z,17.40
2018-10-02T23:28:57.500Z,14.23
2018-10-02T23:31:25.393Z,12.97
2018-10-02T23:33:53.325Z,11.90
2018-10-02T23:36:21.193Z,18.13
2018-10-02T23:38:49.040Z,17.63
2018-10-02T23:41:16.907Z,16.27
2018-10-02T23:43:44.764Z,17.23
2018-10-02T23:46:12.642Z,19.57
2018-10-02T23:48:40.532Z,17.10
2018-10-02T23:51:08.337Z,16.03
2018-10-02T23:53:36.286Z,15.63
2018-10-02T23:56:04.233Z,15.47
2018-10-02T23:58:32.037Z,26.03
